sensor_id;sensor_type;location;lat;lon;timestamp;temperature;humidity
2623;DHT22;1321;48.690;9.022;2023-07-30T00:00:48;20.00;45.40
2623;DHT22;1321;48.690;9.022;2023-07-30T00:03:17;20.00;34.70
2623;DHT22;1321;48.690;9.022;2023-07-30T00:05:53;20.00;33.50
2623;DHT22;1321;48.690;9.022;2023-07-30T00:08:22;20.00;27.00
2623;DHT22;1321;48.690;9.022;2023-07-30T00:10:50;20.00;27.00
2623;DHT22;1321;48.690;9.022;2023-07-30T00:13:18;20.00;27.90
2623;DHT22;1321;48.690;9.022;2023-07-30T00:15:47;19.90;25.70
2623;DHT22;1321;48.690;9.022;2023-07-30T00:18:15;20.00;27.60
2623;DHT22;1321;48.690;9.022;2023-07-30T00:20:44;19.90;32.70
2623;DHT22;1321;48.690;9.022;2023-07-30T00:23:13;19.90;36.80
2623;DHT22;1321;48.690;9.022;2023-07-30T00:25:41;19.90;46.80
2623;DHT22;1321;48.690;9.022;2023-07-30T00:28:09;19.80;41.50
2623;DHT22;1321;48.690;9.022;2023-07-30T00:30:37;19.80;39.50
2623;DHT22;1321;48.690;9.022;2023-07-30T00:33:05;19.80;28.80
2623;DHT22;1321;48.690;9.022;2023-07-30T00:35:33;19.70;35.20
2623;DHT22;1321;48.690;9.022;2023-07-30T00:38:05;19.70;41.10
2623;DHT22;1321;48.690;9.022;2023-07-30T00:40:39;19.80;35.10
2623;DHT22;1321;48.690;9.022;2023-07-30T00:43:07;19.80;22.30
2623;DHT22;1321;48.690;9.022;2023-07-30T00:45:36;19.80;20.80
2623;DHT22;1321;48.690;9.022;2023-07-30T00:48:06;19.80;2.40
2623;DHT22;1321;48.690;9.022;2023-07-30T00:50:34;19.80;4.80
2623;DHT22;1321;48.690;9.022;2023-07-30T00:53:03;19.80;7.00
2623;DHT22;1321;48.690;9.022;2023-07-30T00:55:31;19.80;1.00
2623;DHT22;1321;48.690;9.022;2023-07-30T00:58:01;19.90;1.00
2623;DHT22;1321;48.690;9.022;2023-07-30T01:00:30;19.80;1.00
2623;DHT22;1321;48.690;9.022;2023-07-30T01:02:59;19.90;7.10
2623;DHT22;1321;48.690;9.022;2023-07-30T01:05:28;19.80;1.00
2623;DHT22;1321;48.690;9.022;2023-07-30T01:07:56;19.80;6.20
2623;DHT22;1321;48.690;9.022;2023-07-30T01:10:25;19.80;11.50
2623;DHT22;1321;48.690;9.022;2023-07-30T01:12:53;19.80;9.80
2623;DHT22;1321;48.690;9.022;2023-07-30T01:15:23;19.80;12.80
2623;DHT22;1321;48.690;9.022;2023-07-30T01:17:51;19.80;8.50
2623;DHT22;1321;48.690;9.022;2023-07-30T01:20:19;19.70;7.00
2623;DHT22;1321;48.690;9.022;2023-07-30T01:22:49;19.70;11.60
2623;DHT22;1321;48.690;9.022;2023-07-30T01:25:18;19.70;5.80
2623;DHT22;1321;48.690;9.022;2023-07-30T01:27:50;19.70;7.00
2623;DHT22;1321;48.690;9.022;2023-07-30T01:30:24;19.70;11.90
2623;DHT22;1321;48.690;9.022;2023-07-30T01:32:54;19.70;9.70
2623;DHT22;1321;48.690;9.022;2023-07-30T01:35:26;19.70;7.10
2623;DHT22;1321;48.690;9.022;2023-07-30T01:37:55;19.60;12.50
2623;DHT22;1321;48.690;9.022;2023-07-30T01:40:25;19.60;11.20
2623;DHT22;1321;48.690;9.022;2023-07-30T01:42:53;19.60;9.60
2623;DHT22;1321;48.690;9.022;2023-07-30T01:45:21;19.60;6.50
2623;DHT22;1321;48.690;9.022;2023-07-30T01:47:49;19.60;5.60
2623;DHT22;1321;48.690;9.022;2023-07-30T01:50:17;19.60;5.30
2623;DHT22;1321;48.690;9.022;2023-07-30T01:52:45;19.50;1.00
2623;DHT22;1321;48.690;9.022;2023-07-30T01:55:15;19.60;5.70
2623;DHT22;1321;48.690;9.022;2023-07-30T01:57:43;19.60;1.00
2623;DHT22;1321;48.690;9.022;2023-07-30T02:00:12;19.50;1.00
2623;DHT22;1321;48.690;9.022;2023-07-30T02:02:40;19.50;1.00
2623;DHT22;1321;48.690;9.022;2023-07-30T02:05:08;19.50;1.00
2623;DHT22;1321;48.690;9.022;2023-07-30T02:07:37;19.40;1.00
2623;DHT22;1321;48.690;9.022;2023-07-30T02:10:05;19.40;1.00
2623;DHT22;1321;48.690;9.022;2023-07-30T02:12:35;19.40;1.00
2623;DHT22;1321;48.690;9.022;2023-07-30T02:15:04;19.40;1.00
2623;DHT22;1321;48.690;9.022;2023-07-30T02:17:33;19.40;1.00
2623;DHT22;1321;48.690;9.022;2023-07-30T02:20:01;19.40;1.00
2623;DHT22;1321;48.690;9.022;2023-07-30T02:22:29;19.40;1.00
2623;DHT22;1321;48.690;9.022;2023-07-30T02:24:57;19.40;1.00
2623;DHT22;1321;48.690;9.022;2023-07-30T02:27:26;19.30;1.00
2623;DHT22;1321;48.690;9.022;2023-07-30T02:29:55;19.30;1.00
2623;DHT22;1321;48.690;9.022;2023-07-30T02:32:23;19.30;1.00
2623;DHT22;1321;48.690;9.022;2023-07-30T02:34:52;19.40;1.00
2623;DHT22;1321;48.690;9.022;2023-07-30T02:37:20;19.30;1.00
2623;DHT22;1321;48.690;9.022;2023-07-30T02:39:48;19.30;1.00
2623;DHT22;1321;48.690;9.022;2023-07-30T02:42:16;19.30;1.00
2623;DHT22;1321;48.690;9.022;2023-07-30T02:44:44;19.30;1.00
2623;DHT22;1321;48.690;9.022;2023-07-30T02:47:14;19.30;1.00
2623;DHT22;1321;48.690;9.022;2023-07-30T02:49:42;19.30;1.00
2623;DHT22;1321;48.690;9.022;2023-07-30T02:52:10;19.30;1.00
2623;DHT22;1321;48.690;9.022;2023-07-30T02:54:38;19.30;1.00
2623;DHT22;1321;48.690;9.022;2023-07-30T02:57:06;19.30;1.00
2623;DHT22;1321;48.690;9.022;2023-07-30T02:59:35;19.20;1.00
2623;DHT22;1321;48.690;9.022;2023-07-30T03:02:04;19.30;1.00
2623;DHT22;1321;48.690;9.022;2023-07-30T03:04:34;19.30;1.00
2623;DHT22;1321;48.690;9.022;2023-07-30T03:07:03;19.20;1.00
2623;DHT22;1321;48.690;9.022;2023-07-30T03:09:31;19.30;1.00
2623;DHT22;1321;48.690;9.022;2023-07-30T03:11:59;19.20;1.00
2623;DHT22;1321;48.690;9.022;2023-07-30T03:14:27;19.20;1.00
2623;DHT22;1321;48.690;9.022;2023-07-30T03:16:55;19.20;1.00
2623;DHT22;1321;48.690;9.022;2023-07-30T03:19:24;19.20;1.00
2623;DHT22;1321;48.690;9.022;2023-07-30T03:21:53;19.20;1.00
2623;DHT22;1321;48.690;9.022;2023-07-30T03:24:21;19.20;1.00
2623;DHT22;1321;48.690;9.022;2023-07-30T03:26:49;19.20;1.00
2623;DHT22;1321;48.690;9.022;2023-07-30T03:29:17;19.20;1.00
2623;DHT22;1321;48.690;9.022;2023-07-30T03:31:46;19.10;1.00
2623;DHT22;1321;48.690;9.022;2023-07-30T03:34:14;19.10;1.00
2623;DHT22;1321;48.690;9.022;2023-07-30T03:36:42;19.20;1.00
2623;DHT22;1321;48.690;9.022;2023-07-30T03:39:11;19.20;1.00
2623;DHT22;1321;48.690;9.022;2023-07-30T03:41:39;19.20;1.00
2623;DHT22;1321;48.690;9.022;2023-07-30T03:44:08;19.20;1.00
2623;DHT22;1321;48.690;9.022;2023-07-30T03:46:37;19.20;1.00
2623;DHT22;1321;48.690;9.022;2023-07-30T03:49:05;19.20;1.00
2623;DHT22;1321;48.690;9.022;2023-07-30T03:51:33;19.20;1.00
2623;DHT22;1321;48.690;9.022;2023-07-30T03:54:02;19.10;5.60
2623;DHT22;1321;48.690;9.022;2023-07-30T03:56:32;19.10;17.70
2623;DHT22;1321;48.690;9.022;2023-07-30T03:59:00;19.10;14.50
2623;DHT22;1321;48.690;9.022;2023-07-30T04:01:28;19.10;14.60
2623;DHT22;1321;48.690;9.022;2023-07-30T04:03:57;19.10;14.90
2623;DHT22;1321;48.690;9.022;2023-07-30T04:06:25;19.10;13.90
2623;DHT22;1321;48.690;9.022;2023-07-30T04:08:53;19.10;12.30
2623;DHT22;1321;48.690;9.022;2023-07-30T04:11:21;19.10;6.80
2623;DHT22;1321;48.690;9.022;2023-07-30T04:13:51;19.10;5.60
2623;DHT22;1321;48.690;9.022;2023-07-30T04:16:19;19.10;1.00
2623;DHT22;1321;48.690;9.022;2023-07-30T04:18:47;19.10;1.00
2623;DHT22;1321;48.690;9.022;2023-07-30T04:21:15;19.10;1.00
2623;DHT22;1321;48.690;9.022;2023-07-30T04:23:43;19.10;2.50
2623;DHT22;1321;48.690;9.022;2023-07-30T04:26:11;19.10;1.00
2623;DHT22;1321;48.690;9.022;2023-07-30T04:28:40;19.10;1.00
2623;DHT22;1321;48.690;9.022;2023-07-30T04:31:09;19.10;1.00
2623;DHT22;1321;48.690;9.022;2023-07-30T04:33:37;19.10;1.00
2623;DHT22;1321;48.690;9.022;2023-07-30T04:36:05;19.10;1.00
2623;DHT22;1321;48.690;9.022;2023-07-30T04:38:34;19.10;1.00
2623;DHT22;1321;48.690;9.022;2023-07-30T04:41:03;19.10;1.00
2623;DHT22;1321;48.690;9.022;2023-07-30T04:43:31;19.10;1.00
2623;DHT22;1321;48.690;9.022;2023-07-30T04:45:59;19.10;1.00
2623;DHT22;1321;48.690;9.022;2023-07-30T04:48:29;19.10;1.00
2623;DHT22;1321;48.690;9.022;2023-07-30T04:50:57;19.20;1.00
2623;DHT22;1321;48.690;9.022;2023-07-30T04:53:25;19.10;1.00
2623;DHT22;1321;48.690;9.022;2023-07-30T04:55:56;19.20;1.40
2623;DHT22;1321;48.690;9.022;2023-07-30T04:58:25;19.20;3.90
2623;DHT22;1321;48.690;9.022;2023-07-30T05:00:53;19.20;1.90
2623;DHT22;1321;48.690;9.022;2023-07-30T05:03:21;19.20;1.00
2623;DHT22;1321;48.690;9.022;2023-07-30T05:05:51;19.20;1.00
2623;DHT22;1321;48.690;9.022;2023-07-30T05:08:19;19.20;1.00
2623;DHT22;1321;48.690;9.022;2023-07-30T05:10:47;19.20;1.00
2623;DHT22;1321;48.690;9.022;2023-07-30T05:13:15;19.20;1.00
2623;DHT22;1321;48.690;9.022;2023-07-30T05:15:43;19.10;1.00
2623;DHT22;1321;48.690;9.022;2023-07-30T05:18:11;19.10;1.00
2623;DHT22;1321;48.690;9.022;2023-07-30T05:20:40;19.10;1.00
2623;DHT22;1321;48.690;9.022;2023-07-30T05:23:10;19.20;1.00
2623;DHT22;1321;48.690;9.022;2023-07-30T05:25:38;19.10;1.30
2623;DHT22;1321;48.690;9.022;2023-07-30T05:28:06;19.10;1.00
2623;DHT22;1321;48.690;9.022;2023-07-30T05:30:34;19.10;1.00
2623;DHT22;1321;48.690;9.022;2023-07-30T05:33:02;19.20;1.00
2623;DHT22;1321;48.690;9.022;2023-07-30T05:35:31;19.20;1.00
2623;DHT22;1321;48.690;9.022;2023-07-30T05:37:59;19.20;1.00
2623;DHT22;1321;48.690;9.022;2023-07-30T05:40:29;19.10;1.00
2623;DHT22;1321;48.690;9.022;2023-07-30T05:42:57;19.10;1.00
2623;DHT22;1321;48.690;9.022;2023-07-30T05:45:28;19.20;1.00
2623;DHT22;1321;48.690;9.022;2023-07-30T05:47:56;19.20;1.00
2623;DHT22;1321;48.690;9.022;2023-07-30T05:50:24;19.20;1.00
2623;DHT22;1321;48.690;9.022;2023-07-30T05:52:53;19.20;4.60
2623;DHT22;1321;48.690;9.022;2023-07-30T05:55:21;19.20;1.00
2623;DHT22;1321;48.690;9.022;2023-07-30T05:57:50;19.20;1.00
2623;DHT22;1321;48.690;9.022;2023-07-30T06:00:20;19.20;1.00
2623;DHT22;1321;48.690;9.022;2023-07-30T06:02:48;19.20;1.00
2623;DHT22;1321;48.690;9.022;2023-07-30T06:05:16;19.20;1.00
2623;DHT22;1321;48.690;9.022;2023-07-30T06:07:44;19.20;1.00
2623;DHT22;1321;48.690;9.022;2023-07-30T06:10:12;19.30;1.00
2623;DHT22;1321;48.690;9.022;2023-07-30T06:12:40;19.30;5.80
2623;DHT22;1321;48.690;9.022;2023-07-30T06:15:10;19.30;4.50
2623;DHT22;1321;48.690;9.022;2023-07-30T06:17:38;19.30;1.00
2623;DHT22;1321;48.690;9.022;2023-07-30T06:20:08;19.40;3.20
2623;DHT22;1321;48.690;9.022;2023-07-30T06:22:37;19.40;1.00
2623;DHT22;1321;48.690;9.022;2023-07-30T06:25:05;19.50;1.00
2623;DHT22;1321;48.690;9.022;2023-07-30T06:27:34;19.50;1.00
2623;DHT22;1321;48.690;9.022;2023-07-30T06:30:02;19.70;1.00
2623;DHT22;1321;48.690;9.022;2023-07-30T06:32:40;19.70;1.00
2623;DHT22;1321;48.690;9.022;2023-07-30T06:35:08;19.70;1.00
2623;DHT22;1321;48.690;9.022;2023-07-30T06:37:37;19.90;1.00
2623;DHT22;1321;48.690;9.022;2023-07-30T06:40:06;20.10;1.00
2623;DHT22;1321;48.690;9.022;2023-07-30T06:42:35;20.40;1.00
2623;DHT22;1321;48.690;9.022;2023-07-30T06:45:04;20.60;1.00
2623;DHT22;1321;48.690;9.022;2023-07-30T06:47:32;20.70;1.00
2623;DHT22;1321;48.690;9.022;2023-07-30T06:50:05;20.80;1.00
2623;DHT22;1321;48.690;9.022;2023-07-30T06:52:35;20.90;1.00
2623;DHT22;1321;48.690;9.022;2023-07-30T06:55:04;20.80;99.90
2623;DHT22;1321;48.690;9.022;2023-07-30T06:57:32;20.80;99.90
2623;DHT22;1321;48.690;9.022;2023-07-30T07:00:00;20.70;99.90
2623;DHT22;1321;48.690;9.022;2023-07-30T07:02:29;20.60;99.90
2623;DHT22;1321;48.690;9.022;2023-07-30T07:05:00;20.50;1.00
2623;DHT22;1321;48.690;9.022;2023-07-30T07:07:30;20.40;1.00
2623;DHT22;1321;48.690;9.022;2023-07-30T07:09:58;20.30;1.00
2623;DHT22;1321;48.690;9.022;2023-07-30T07:12:26;20.30;1.00
2623;DHT22;1321;48.690;9.022;2023-07-30T07:14:54;20.20;1.00
2623;DHT22;1321;48.690;9.022;2023-07-30T07:17:25;20.20;1.00
2623;DHT22;1321;48.690;9.022;2023-07-30T07:19:53;20.20;1.00
2623;DHT22;1321;48.690;9.022;2023-07-30T07:22:21;20.10;1.00
2623;DHT22;1321;48.690;9.022;2023-07-30T07:24:52;20.10;1.00
2623;DHT22;1321;48.690;9.022;2023-07-30T07:27:20;20.00;1.00
2623;DHT22;1321;48.690;9.022;2023-07-30T07:29:50;20.00;1.00
2623;DHT22;1321;48.690;9.022;2023-07-30T07:32:18;20.00;1.00
2623;DHT22;1321;48.690;9.022;2023-07-30T07:34:47;19.90;1.00
2623;DHT22;1321;48.690;9.022;2023-07-30T07:37:16;19.90;1.00
2623;DHT22;1321;48.690;9.022;2023-07-30T07:39:46;19.90;1.00
2623;DHT22;1321;48.690;9.022;2023-07-30T07:42:15;19.90;1.00
2623;DHT22;1321;48.690;9.022;2023-07-30T07:44:43;19.90;1.00
2623;DHT22;1321;48.690;9.022;2023-07-30T07:47:13;19.90;1.00
2623;DHT22;1321;48.690;9.022;2023-07-30T07:49:41;19.90;1.00
2623;DHT22;1321;48.690;9.022;2023-07-30T07:52:11;20.00;1.00
2623;DHT22;1321;48.690;9.022;2023-07-30T07:54:40;20.00;1.00
2623;DHT22;1321;48.690;9.022;2023-07-30T07:57:08;20.00;1.00
2623;DHT22;1321;48.690;9.022;2023-07-30T07:59:38;20.00;1.00
2623;DHT22;1321;48.690;9.022;2023-07-30T08:02:08;20.00;1.00
2623;DHT22;1321;48.690;9.022;2023-07-30T08:04:36;20.00;1.00
2623;DHT22;1321;48.690;9.022;2023-07-30T08:07:05;20.10;1.00
2623;DHT22;1321;48.690;9.022;2023-07-30T08:09:33;20.10;1.00
2623;DHT22;1321;48.690;9.022;2023-07-30T08:12:01;20.20;1.00
2623;DHT22;1321;48.690;9.022;2023-07-30T08:14:32;20.30;1.00
2623;DHT22;1321;48.690;9.022;2023-07-30T08:17:26;20.40;1.00
2623;DHT22;1321;48.690;9.022;2023-07-30T08:23:26;20.70;1.00
2623;DHT22;1321;48.690;9.022;2023-07-30T08:25:59;20.80;1.00
2623;DHT22;1321;48.690;9.022;2023-07-30T08:28:27;20.80;1.00
2623;DHT22;1321;48.690;9.022;2023-07-30T08:31:10;20.90;1.00
2623;DHT22;1321;48.690;9.022;2023-07-30T08:33:43;21.00;1.00
2623;DHT22;1321;48.690;9.022;2023-07-30T08:36:14;21.00;99.90
2623;DHT22;1321;48.690;9.022;2023-07-30T08:38:42;21.00;99.90
2623;DHT22;1321;48.690;9.022;2023-07-30T08:48:03;21.10;99.90
2623;DHT22;1321;48.690;9.022;2023-07-30T08:53:57;21.20;15.60
2623;DHT22;1321;48.690;9.022;2023-07-30T08:56:27;21.30;1.00
2623;DHT22;1321;48.690;9.022;2023-07-30T08:58:56;21.30;99.90
2623;DHT22;1321;48.690;9.022;2023-07-30T09:01:29;21.30;99.90
2623;DHT22;1321;48.690;9.022;2023-07-30T09:03:58;21.30;1.00
2623;DHT22;1321;48.690;9.022;2023-07-30T09:06:28;21.30;1.00
2623;DHT22;1321;48.690;9.022;2023-07-30T09:08:57;21.20;99.90
2623;DHT22;1321;48.690;9.022;2023-07-30T09:11:26;21.10;99.90
2623;DHT22;1321;48.690;9.022;2023-07-30T09:13:56;21.10;99.90
2623;DHT22;1321;48.690;9.022;2023-07-30T09:16:28;21.00;63.90
2623;DHT22;1321;48.690;9.022;2023-07-30T09:18:59;21.00;99.90
2623;DHT22;1321;48.690;9.022;2023-07-30T09:21:33;20.90;1.00
2623;DHT22;1321;48.690;9.022;2023-07-30T09:24:03;20.80;1.00
2623;DHT22;1321;48.690;9.022;2023-07-30T09:26:42;20.80;99.90
2623;DHT22;1321;48.690;9.022;2023-07-30T09:29:11;20.70;1.00
2623;DHT22;1321;48.690;9.022;2023-07-30T09:31:50;20.60;99.90
2623;DHT22;1321;48.690;9.022;2023-07-30T09:34:22;20.60;1.00
2623;DHT22;1321;48.690;9.022;2023-07-30T09:36:53;20.60;99.90
2623;DHT22;1321;48.690;9.022;2023-07-30T09:39:23;20.60;99.90
2623;DHT22;1321;48.690;9.022;2023-07-30T09:41:59;20.50;1.00
2623;DHT22;1321;48.690;9.022;2023-07-30T09:44:29;20.60;1.00
2623;DHT22;1321;48.690;9.022;2023-07-30T09:47:01;20.60;13.40
2623;DHT22;1321;48.690;9.022;2023-07-30T09:49:32;20.70;1.00
2623;DHT22;1321;48.690;9.022;2023-07-30T09:52:03;20.70;99.90
2623;DHT22;1321;48.690;9.022;2023-07-30T09:54:33;20.70;1.00
2623;DHT22;1321;48.690;9.022;2023-07-30T09:57:03;20.70;1.00
2623;DHT22;1321;48.690;9.022;2023-07-30T09:59:32;20.80;99.90
2623;DHT22;1321;48.690;9.022;2023-07-30T10:02:01;20.90;99.90
2623;DHT22;1321;48.690;9.022;2023-07-30T10:04:31;21.10;1.00
2623;DHT22;1321;48.690;9.022;2023-07-30T10:07:06;21.20;94.20
2623;DHT22;1321;48.690;9.022;2023-07-30T10:09:39;21.20;1.00
2623;DHT22;1321;48.690;9.022;2023-07-30T10:12:10;21.30;99.90
2623;DHT22;1321;48.690;9.022;2023-07-30T10:14:40;21.30;99.90
2623;DHT22;1321;48.690;9.022;2023-07-30T10:17:10;21.50;1.00
2623;DHT22;1321;48.690;9.022;2023-07-30T10:19:39;21.40;99.90
2623;DHT22;1321;48.690;9.022;2023-07-30T10:22:22;21.40;99.90
2623;DHT22;1321;48.690;9.022;2023-07-30T10:25:00;21.40;99.90
2623;DHT22;1321;48.690;9.022;2023-07-30T10:27:36;21.40;49.70
2623;DHT22;1321;48.690;9.022;2023-07-30T10:30:11;21.50;41.20
2623;DHT22;1321;48.690;9.022;2023-07-30T10:32:59;21.60;1.00
2623;DHT22;1321;48.690;9.022;2023-07-30T10:35:39;21.70;1.00
2623;DHT22;1321;48.690;9.022;2023-07-30T10:38:22;21.70;1.00
2623;DHT22;1321;48.690;9.022;2023-07-30T10:41:03;21.80;1.00
2623;DHT22;1321;48.690;9.022;2023-07-30T10:43:35;21.70;1.00
2623;DHT22;1321;48.690;9.022;2023-07-30T10:46:03;21.80;1.00
2623;DHT22;1321;48.690;9.022;2023-07-30T10:48:33;21.90;1.00
2623;DHT22;1321;48.690;9.022;2023-07-30T10:51:13;21.90;1.00
2623;DHT22;1321;48.690;9.022;2023-07-30T10:53:44;21.90;1.00
2623;DHT22;1321;48.690;9.022;2023-07-30T10:56:13;21.80;1.00
2623;DHT22;1321;48.690;9.022;2023-07-30T10:58:49;21.80;1.00
2623;DHT22;1321;48.690;9.022;2023-07-30T11:01:18;21.90;1.00
2623;DHT22;1321;48.690;9.022;2023-07-30T11:03:48;21.90;1.00
2623;DHT22;1321;48.690;9.022;2023-07-30T11:06:21;21.90;1.00
2623;DHT22;1321;48.690;9.022;2023-07-30T11:08:51;21.90;99.90
2623;DHT22;1321;48.690;9.022;2023-07-30T11:11:19;22.00;99.90
2623;DHT22;1321;48.690;9.022;2023-07-30T11:13:47;22.00;99.90
2623;DHT22;1321;48.690;9.022;2023-07-30T11:16:16;22.10;99.90
2623;DHT22;1321;48.690;9.022;2023-07-30T11:18:45;22.20;99.90
2623;DHT22;1321;48.690;9.022;2023-07-30T11:21:15;22.20;99.90
2623;DHT22;1321;48.690;9.022;2023-07-30T11:23:45;22.20;99.90
2623;DHT22;1321;48.690;9.022;2023-07-30T11:26:16;22.30;99.90
2623;DHT22;1321;48.690;9.022;2023-07-30T11:28:45;22.30;99.90
2623;DHT22;1321;48.690;9.022;2023-07-30T11:31:15;22.30;99.90
2623;DHT22;1321;48.690;9.022;2023-07-30T11:33:45;22.30;99.90
2623;DHT22;1321;48.690;9.022;2023-07-30T11:36:15;22.30;99.90
2623;DHT22;1321;48.690;9.022;2023-07-30T11:38:45;22.30;99.90
2623;DHT22;1321;48.690;9.022;2023-07-30T11:41:15;22.30;99.90
2623;DHT22;1321;48.690;9.022;2023-07-30T11:43:44;22.20;99.90
2623;DHT22;1321;48.690;9.022;2023-07-30T11:46:13;22.10;99.90
2623;DHT22;1321;48.690;9.022;2023-07-30T11:48:43;22.20;99.90
2623;DHT22;1321;48.690;9.022;2023-07-30T11:51:22;22.30;99.90
2623;DHT22;1321;48.690;9.022;2023-07-30T11:53:52;22.30;99.90
2623;DHT22;1321;48.690;9.022;2023-07-30T11:56:23;22.30;1.00
2623;DHT22;1321;48.690;9.022;2023-07-30T11:58:54;22.20;1.00
2623;DHT22;1321;48.690;9.022;2023-07-30T12:01:24;22.10;99.90
2623;DHT22;1321;48.690;9.022;2023-07-30T12:03:54;22.10;1.00
2623;DHT22;1321;48.690;9.022;2023-07-30T12:06:23;22.10;1.00
2623;DHT22;1321;48.690;9.022;2023-07-30T12:08:51;22.00;1.00
2623;DHT22;1321;48.690;9.022;2023-07-30T12:11:21;22.10;1.00
2623;DHT22;1321;48.690;9.022;2023-07-30T12:13:51;22.10;1.00
2623;DHT22;1321;48.690;9.022;2023-07-30T12:16:19;22.10;99.90
2623;DHT22;1321;48.690;9.022;2023-07-30T12:18:48;22.00;1.00
2623;DHT22;1321;48.690;9.022;2023-07-30T12:21:16;22.00;1.00
2623;DHT22;1321;48.690;9.022;2023-07-30T12:23:44;22.00;99.90
2623;DHT22;1321;48.690;9.022;2023-07-30T12:26:13;22.00;1.00
2623;DHT22;1321;48.690;9.022;2023-07-30T12:28:42;21.90;99.90
2623;DHT22;1321;48.690;9.022;2023-07-30T12:31:10;21.80;99.90
2623;DHT22;1321;48.690;9.022;2023-07-30T12:33:38;21.90;99.90
2623;DHT22;1321;48.690;9.022;2023-07-30T12:36:07;22.10;99.90
2623;DHT22;1321;48.690;9.022;2023-07-30T12:38:35;22.20;99.90
2623;DHT22;1321;48.690;9.022;2023-07-30T12:41:03;22.30;99.90
2623;DHT22;1321;48.690;9.022;2023-07-30T12:43:31;22.40;99.90
2623;DHT22;1321;48.690;9.022;2023-07-30T12:46:01;22.40;99.90
2623;DHT22;1321;48.690;9.022;2023-07-30T12:48:29;22.30;99.90
2623;DHT22;1321;48.690;9.022;2023-07-30T12:50:58;22.20;99.90
2623;DHT22;1321;48.690;9.022;2023-07-30T12:53:28;22.10;99.90
2623;DHT22;1321;48.690;9.022;2023-07-30T12:55:59;22.10;99.90
2623;DHT22;1321;48.690;9.022;2023-07-30T12:58:55;22.00;99.90
2623;DHT22;1321;48.690;9.022;2023-07-30T13:01:25;22.00;99.90
2623;DHT22;1321;48.690;9.022;2023-07-30T13:03:54;22.20;99.90
2623;DHT22;1321;48.690;9.022;2023-07-30T13:06:44;22.30;99.90
2623;DHT22;1321;48.690;9.022;2023-07-30T13:09:18;22.30;99.90
2623;DHT22;1321;48.690;9.022;2023-07-30T13:11:52;22.40;99.90
2623;DHT22;1321;48.690;9.022;2023-07-30T13:14:20;22.50;99.90
2623;DHT22;1321;48.690;9.022;2023-07-30T13:16:50;22.50;99.90
2623;DHT22;1321;48.690;9.022;2023-07-30T13:19:25;22.40;99.90
2623;DHT22;1321;48.690;9.022;2023-07-30T13:21:55;22.40;99.90
2623;DHT22;1321;48.690;9.022;2023-07-30T13:24:41;22.30;99.90
2623;DHT22;1321;48.690;9.022;2023-07-30T13:27:24;22.30;99.90
2623;DHT22;1321;48.690;9.022;2023-07-30T13:31:01;22.30;99.90
2623;DHT22;1321;48.690;9.022;2023-07-30T13:33:43;22.30;99.90
2623;DHT22;1321;48.690;9.022;2023-07-30T13:36:14;22.20;99.90
2623;DHT22;1321;48.690;9.022;2023-07-30T13:38:45;22.20;99.90
2623;DHT22;1321;48.690;9.022;2023-07-30T13:41:13;22.40;99.90
2623;DHT22;1321;48.690;9.022;2023-07-30T13:43:41;22.40;99.90
2623;DHT22;1321;48.690;9.022;2023-07-30T13:46:24;22.50;99.90
2623;DHT22;1321;48.690;9.022;2023-07-30T13:48:54;22.50;99.90
2623;DHT22;1321;48.690;9.022;2023-07-30T13:51:22;22.50;99.90
2623;DHT22;1321;48.690;9.022;2023-07-30T13:53:52;22.50;99.90
2623;DHT22;1321;48.690;9.022;2023-07-30T13:56:23;22.50;99.90
2623;DHT22;1321;48.690;9.022;2023-07-30T13:58:57;22.50;99.90
2623;DHT22;1321;48.690;9.022;2023-07-30T14:01:25;22.50;99.90
2623;DHT22;1321;48.690;9.022;2023-07-30T14:04:03;22.50;99.90
2623;DHT22;1321;48.690;9.022;2023-07-30T14:06:31;22.40;99.90
2623;DHT22;1321;48.690;9.022;2023-07-30T14:08:59;22.30;99.90
2623;DHT22;1321;48.690;9.022;2023-07-30T14:11:34;22.40;99.90
2623;DHT22;1321;48.690;9.022;2023-07-30T14:14:04;22.40;99.90
2623;DHT22;1321;48.690;9.022;2023-07-30T14:16:32;22.40;99.90
2623;DHT22;1321;48.690;9.022;2023-07-30T14:19:02;22.50;99.90
2623;DHT22;1321;48.690;9.022;2023-07-30T14:21:30;22.50;99.90
2623;DHT22;1321;48.690;9.022;2023-07-30T14:23:58;22.40;99.90
2623;DHT22;1321;48.690;9.022;2023-07-30T14:26:27;22.40;99.90
2623;DHT22;1321;48.690;9.022;2023-07-30T14:28:55;22.50;99.90
2623;DHT22;1321;48.690;9.022;2023-07-30T14:31:24;22.60;99.90
2623;DHT22;1321;48.690;9.022;2023-07-30T14:33:52;22.50;99.90
2623;DHT22;1321;48.690;9.022;2023-07-30T14:36:21;22.50;99.90
2623;DHT22;1321;48.690;9.022;2023-07-30T14:38:50;22.50;99.90
2623;DHT22;1321;48.690;9.022;2023-07-30T14:41:18;22.50;99.90
2623;DHT22;1321;48.690;9.022;2023-07-30T14:43:46;22.50;99.90
2623;DHT22;1321;48.690;9.022;2023-07-30T14:46:14;22.50;99.90
2623;DHT22;1321;48.690;9.022;2023-07-30T14:48:43;22.50;99.90
2623;DHT22;1321;48.690;9.022;2023-07-30T14:51:11;22.50;99.90
2623;DHT22;1321;48.690;9.022;2023-07-30T14:53:40;22.50;99.90
2623;DHT22;1321;48.690;9.022;2023-07-30T14:56:09;22.50;99.90
2623;DHT22;1321;48.690;9.022;2023-07-30T14:58:37;22.50;99.90
2623;DHT22;1321;48.690;9.022;2023-07-30T15:01:05;22.50;99.90
2623;DHT22;1321;48.690;9.022;2023-07-30T15:03:37;22.50;99.90
2623;DHT22;1321;48.690;9.022;2023-07-30T15:06:05;22.40;99.90
2623;DHT22;1321;48.690;9.022;2023-07-30T15:08:34;22.40;99.90
2623;DHT22;1321;48.690;9.022;2023-07-30T15:11:03;22.40;99.90
2623;DHT22;1321;48.690;9.022;2023-07-30T15:13:31;22.40;99.90
2623;DHT22;1321;48.690;9.022;2023-07-30T15:15:59;22.40;99.90
2623;DHT22;1321;48.690;9.022;2023-07-30T15:18:27;22.30;99.90
2623;DHT22;1321;48.690;9.022;2023-07-30T15:20:56;22.30;99.90
2623;DHT22;1321;48.690;9.022;2023-07-30T15:23:24;22.20;99.90
2623;DHT22;1321;48.690;9.022;2023-07-30T15:25:52;22.20;99.90
2623;DHT22;1321;48.690;9.022;2023-07-30T15:28:23;22.20;99.90
2623;DHT22;1321;48.690;9.022;2023-07-30T15:30:51;22.20;99.90
2623;DHT22;1321;48.690;9.022;2023-07-30T15:33:19;22.20;99.90
2623;DHT22;1321;48.690;9.022;2023-07-30T15:35:48;22.20;99.90
2623;DHT22;1321;48.690;9.022;2023-07-30T15:38:16;22.10;99.90
2623;DHT22;1321;48.690;9.022;2023-07-30T15:40:44;22.10;99.90
2623;DHT22;1321;48.690;9.022;2023-07-30T15:43:12;22.10;99.90
2623;DHT22;1321;48.690;9.022;2023-07-30T15:45:42;22.20;99.90
2623;DHT22;1321;48.690;9.022;2023-07-30T15:48:10;22.10;99.90
2623;DHT22;1321;48.690;9.022;2023-07-30T15:50:39;22.20;99.90
2623;DHT22;1321;48.690;9.022;2023-07-30T15:53:07;22.20;99.90
2623;DHT22;1321;48.690;9.022;2023-07-30T15:55:35;22.20;99.90
2623;DHT22;1321;48.690;9.022;2023-07-30T15:58:04;22.20;99.90
2623;DHT22;1321;48.690;9.022;2023-07-30T16:00:32;22.10;99.90
2623;DHT22;1321;48.690;9.022;2023-07-30T16:03:02;22.10;99.90
2623;DHT22;1321;48.690;9.022;2023-07-30T16:05:32;22.10;99.90
2623;DHT22;1321;48.690;9.022;2023-07-30T16:08:01;22.20;99.90
2623;DHT22;1321;48.690;9.022;2023-07-30T16:10:29;22.10;99.90
2623;DHT22;1321;48.690;9.022;2023-07-30T16:12:57;22.10;99.90
2623;DHT22;1321;48.690;9.022;2023-07-30T16:15:26;22.10;99.90
2623;DHT22;1321;48.690;9.022;2023-07-30T16:17:55;22.20;99.90
2623;DHT22;1321;48.690;9.022;2023-07-30T16:20:24;22.20;99.90
2623;DHT22;1321;48.690;9.022;2023-07-30T16:22:52;22.20;99.90
2623;DHT22;1321;48.690;9.022;2023-07-30T16:25:21;22.20;99.90
2623;DHT22;1321;48.690;9.022;2023-07-30T16:27:49;22.20;99.90
2623;DHT22;1321;48.690;9.022;2023-07-30T16:30:17;22.20;99.90
2623;DHT22;1321;48.690;9.022;2023-07-30T16:32:45;22.10;99.90
2623;DHT22;1321;48.690;9.022;2023-07-30T16:35:13;22.10;99.90
2623;DHT22;1321;48.690;9.022;2023-07-30T16:37:43;22.00;99.90
2623;DHT22;1321;48.690;9.022;2023-07-30T16:40:14;21.90;99.90